This is the latest recevied weather packets stored in our database for station/object KL1SF-7. If no packets are shown the sender has not sent any weather packets the latest 10 day(s).
| Time | Temp. | Humidity | Pressure | Rain* | Wind** | Luminosity | Snow |
|---|---|---|---|---|---|---|---|
| 1777496627 | 17.22° C | 14% | 1017.3 hPa | 0 mm | - | - | - |
| 1777496006 | 16.67° C | 13% | 1017.4 hPa | 0 mm | - | - | - |
| 1777495413 | 16.67° C | 12% | 1017.4 hPa | 0 mm | - | - | - |
| 1777494825 | 17.22° C | 13% | 1017.7 hPa | 0 mm | - | - | - |
| 1777494223 | 16.67° C | 13% | 1017.9 hPa | 0 mm | - | - | - |
| 1777493609 | 16.67° C | 14% | 1017.9 hPa | 0 mm | - | - | - |
| 1777493027 | 16.11° C | 15% | 1018.6 hPa | 0 mm | - | - | - |
| 1777492406 | 16.11° C | 14% | 1018.6 hPa | 0 mm | - | - | - |
| 1777491814 | 16.11° C | 14% | 1018.6 hPa | 0 mm | - | - | - |
| 1777491223 | 16.67° C | 15% | 1018.1 hPa | 0 mm | - | - | - |
| 1777490622 | 16.11° C | 15% | 1018.8 hPa | 0 mm | - | - | - |
| 1777490006 | 16.11° C | 15% | 1018.8 hPa | 0 mm | - | - | - |
| 1777489417 | 16.11° C | 16% | 1018.8 hPa | 0 mm | - | - | - |
| 1777488820 | 15.56° C | 16% | 1018.8 hPa | 0 mm | - | - | - |
| 1777488211 | 15° C | 16% | 1018.8 hPa | 0 mm | - | - | - |
| 1777487622 | 15° C | 16% | 1019.3 hPa | 0 mm | - | - | - |
| 1777487022 | 15° C | 15% | 1019.4 hPa | 0 mm | - | - | - |
| 1777486412 | 15° C | 15% | 1019.4 hPa | 0 mm | - | - | - |
| 1777485826 | 15° C | 17% | 1019.5 hPa | 0 mm | - | - | - |
| 1777485211 | 14.44° C | 19% | 1019.4 hPa | 0 mm | - | - | - |
| 1777484619 | 14.44° C | 20% | 1019.4 hPa | 0 mm | - | - | - |
| 1777484032 | 13.33° C | 20% | 1020 hPa | 0 mm | - | - | - |
| 1777483413 | 13.33° C | 21% | 1020.1 hPa | 0 mm | - | - | - |
| 1777482824 | 13.33° C | 22% | 1020.1 hPa | 0 mm | - | - | - |
| 1777482219 | 13.33° C | 23% | 1020.1 hPa | 0 mm | - | - | - |
* Rain since midnight (hover to see other rain measurements)
** Current wind speed in m/s (hover to see current wind gust speed)